Time;durP1;ratioP1;P1;durP2;ratioP2;P2;SDS_P1;SDS_P2;PMS_P1;PMS_P2;Temp;Humidity;BMP_temperature;BMP_pressure;BME280_temperature;BME280_humidity;BME280_pressure;Samples;Min_cycle;Max_cycle;Signal;HPM_P1;HPM_P2
2023/05/29 00:03:33;;;;;;;7.35;3.58;;;;;;;19.27;44.87;99226.41;7384104;39;20740;31
2023/05/29 00:09:10;;;;;;;5.73;3.73;;;;;;;19.33;45.21;99230.19;7422310;39;20344;31
2023/05/29 00:14:42;;;;;;;5.50;3.23;;;;;;;19.24;45.38;99231.50;7263158;39;20226;31
2023/05/29 00:20:18;;;;;;;8.50;3.90;;;;;;;19.12;45.15;99223.19;7399956;39;20263;31
2023/05/29 00:30:58;;;;;;;5.36;3.22;;;;;;;18.99;46.49;99216.97;7444065;39;20390;31
2023/05/29 00:41:24;;;;;;;5.37;3.10;;;;;;;18.75;46.68;99215.84;7468374;39;20254;31
2023/05/29 00:47:00;;;;;;;5.27;3.27;;;;;;;18.65;48.20;99215.50;7462435;39;20359;31
2023/05/29 00:52:35;;;;;;;4.63;3.23;;;;;;;18.63;47.36;99212.12;7390308;39;20315;31
2023/05/29 00:58:10;;;;;;;5.20;3.10;;;;;;;18.60;47.63;99218.88;7423491;39;20238;31
2023/05/29 01:03:48;;;;;;;6.10;3.50;;;;;;;18.47;48.48;99213.47;7358927;39;20377;31
2023/05/29 01:09:07;;;;;;;6.70;3.30;;;;;;;18.41;47.74;99208.84;7342844;39;20245;31
2023/05/29 01:14:41;;;;;;;4.77;3.10;;;;;;;18.28;47.69;99207.03;7392032;39;20397;31
2023/05/29 01:20:23;;;;;;;5.20;3.30;;;;;;;18.30;48.46;99206.78;7398710;39;20324;31
2023/05/29 01:26:11;;;;;;;7.10;3.10;;;;;;;18.40;48.19;99207.16;7387623;39;20510;31
2023/05/29 01:31:47;;;;;;;5.15;3.30;;;;;;;18.28;48.38;99200.72;7425474;39;20247;31
2023/05/29 01:37:08;;;;;;;8.03;3.87;;;;;;;18.23;48.38;99209.56;7423208;39;20244;31
2023/05/29 01:42:43;;;;;;;6.63;3.20;;;;;;;18.13;48.82;99200.97;7436907;39;20241;31
2023/05/29 01:48:17;;;;;;;5.70;3.40;;;;;;;18.03;48.70;99200.59;7398110;39;20258;31
2023/05/29 01:53:53;;;;;;;4.55;3.45;;;;;;;17.78;49.36;99203.16;7404822;39;20235;31
2023/05/29 01:59:28;;;;;;;6.07;3.53;;;;;;;17.73;49.77;99193.94;7338094;39;20497;31
2023/05/29 02:10:07;;;;;;;6.57;3.77;;;;;;;17.54;50.47;99190.19;7438633;39;20266;31
2023/05/29 02:15:28;;;;;;;4.70;3.63;;;;;;;17.39;49.94;99195.00;7396249;39;20285;31
2023/05/29 02:26:08;;;;;;;5.87;3.40;;;;;;;17.23;50.81;99189.97;7398418;39;20355;31
2023/05/29 02:36:45;;;;;;;6.10;3.20;;;;;;;17.19;51.34;99199.63;7492489;39;20378;31
2023/05/29 02:42:19;;;;;;;4.50;3.30;;;;;;;17.14;51.41;99200.25;7467129;39;20318;31
2023/05/29 02:47:53;;;;;;;5.57;3.33;;;;;;;17.17;50.28;99196.25;7442789;39;20338;31
2023/05/29 02:53:14;;;;;;;4.53;3.30;;;;;;;17.11;51.20;99195.22;7419564;39;20256;31
2023/05/29 03:03:56;;;;;;;10.60;3.50;;;;;;;17.03;51.40;99190.81;7398731;39;20448;31
2023/05/29 03:09:30;;;;;;;7.47;3.43;;;;;;;16.82;52.12;99193.72;7338959;39;20253;31
2023/05/29 03:14:50;;;;;;;6.43;3.60;;;;;;;16.73;51.45;99194.94;7374681;39;20276;31
2023/05/29 03:20:27;;;;;;;5.87;3.70;;;;;;;16.60;52.67;99192.19;7381419;39;20364;31
2023/05/29 03:25:47;;;;;;;5.67;3.17;;;;;;;16.68;51.41;99192.84;7356907;39;20258;31
2023/05/29 03:31:22;;;;;;;6.10;3.60;;;;;;;16.62;51.72;99190.97;7359600;39;20437;31
2023/05/29 03:36:58;;;;;;;4.90;3.30;;;;;;;16.50;52.02;99194.44;7381247;39;21464;31
2023/05/29 03:47:22;;;;;;;5.60;3.50;;;;;;;16.30;52.59;99207.13;7370694;39;20277;31
2023/05/29 03:58:03;;;;;;;4.57;3.27;;;;;;;16.10;53.68;99202.44;7409539;39;20282;31
2023/05/29 04:08:42;;;;;;;5.20;3.60;;;;;;;16.19;53.10;99224.88;7412661;39;20514;31
2023/05/29 04:14:18;;;;;;;6.60;4.00;;;;;;;16.24;53.54;99231.37;7425089;39;20252;31
2023/05/29 04:19:53;;;;;;;4.43;3.50;;;;;;;16.34;52.49;99246.47;7435488;39;20260;31
2023/05/29 04:25:28;;;;;;;5.00;3.10;;;;;;;16.30;53.41;99253.37;7401290;39;21355;31
2023/05/29 04:31:05;;;;;;;7.55;3.70;;;;;;;16.31;53.10;99257.78;7381796;39;20227;31
2023/05/29 04:36:39;;;;;;;5.40;3.20;;;;;;;16.37;53.61;99251.50;7337799;39;20235;31
2023/05/29 04:42:00;;;;;;;5.47;3.20;;;;;;;16.42;52.44;99266.19;7393699;39;21449;31
2023/05/29 04:47:36;;;;;;;5.13;3.40;;;;;;;16.47;52.75;99274.59;7431561;39;20270;31
2023/05/29 04:52:55;;;;;;;6.25;3.45;;;;;;;16.57;52.15;99272.38;7397892;39;20330;31
2023/05/29 04:58:13;;;;;;;5.45;3.10;;;;;;;16.69;52.45;99272.62;7402404;39;20334;31
2023/05/29 05:03:50;;;;;;;5.13;3.23;;;;;;;16.70;52.93;99282.47;7380198;39;20367;31
2023/05/29 05:09:26;;;;;;;4.93;3.37;;;;;;;16.92;52.42;99284.00;7420528;39;20430;31
2023/05/29 05:14:46;;;;;;;3.83;3.00;;;;;;;17.09;51.82;99290.75;7400167;39;20314;31
2023/05/29 05:20:21;;;;;;;6.10;3.33;;;;;;;17.20;51.49;99291.22;7382985;39;20246;31
2023/05/29 05:25:42;;;;;;;6.27;3.07;;;;;;;17.38;50.83;99294.13;7402866;39;20250;31
2023/05/29 05:31:18;;;;;;;4.10;3.05;;;;;;;17.53;50.87;99294.78;7437548;39;20261;31
2023/05/29 05:36:54;;;;;;;5.75;3.00;;;;;;;17.66;51.12;99299.44;7451212;39;20475;31
2023/05/29 05:42:14;;;;;;;3.65;2.90;;;;;;;17.79;50.57;99300.28;7447069;39;20447;31
2023/05/29 05:47:50;;;;;;;3.70;3.07;;;;;;;17.92;50.87;99303.00;7468175;39;20261;31
2023/05/29 05:53:26;;;;;;;4.83;3.13;;;;;;;18.11;51.01;99300.47;7443641;39;20241;31
2023/05/29 05:58:45;;;;;;;4.43;3.00;;;;;;;18.27;49.79;99314.50;7419685;39;20254;31
2023/05/29 06:09:25;;;;;;;3.83;3.00;;;;;;;18.53;49.90;99320.97;7408780;39;20266;31
2023/05/29 06:19:50;;;;;;;4.50;3.00;;;;;;;18.86;49.08;99329.87;7471079;39;21327;31
2023/05/29 06:25:32;;;;;;;5.78;3.10;;;;;;;18.93;48.73;99325.22;7448295;39;20285;31
2023/05/29 06:35:51;;;;;;;4.83;2.97;;;;;;;19.24;47.66;99340.81;7469502;39;20288;31
2023/05/29 06:46:27;;;;;;;4.60;2.90;;;;;;;19.54;47.18;99343.81;7494788;39;20271;31
2023/05/29 06:57:06;;;;;;;5.67;3.43;;;;;;;19.80;46.33;99355.41;7380767;39;20267;31
2023/05/29 07:02:42;;;;;;;8.73;3.60;;;;;;;20.02;47.16;99357.75;7376813;39;20286;31
2023/05/29 07:13:07;;;;;;;4.75;3.33;;;;;;;20.32;44.89;99355.19;7425149;39;20257;31
2023/05/29 07:23:47;;;;;;;6.40;3.10;;;;;;;20.56;44.76;99365.28;7478254;39;20388;31
2023/05/29 07:29:23;;;;;;;5.70;3.50;;;;;;;20.72;44.70;99367.41;7448505;39;20237;31
2023/05/29 07:34:57;;;;;;;4.83;3.30;;;;;;;21.00;43.35;99372.38;7203598;39;20231;31
2023/05/29 07:40:33;;;;;;;3.73;3.13;;;;;;;21.10;43.85;99376.25;7404843;39;20255;31
2023/05/29 07:45:54;;;;;;;5.45;3.50;;;;;;;21.17;42.31;99391.78;7369520;39;20267;31
2023/05/29 07:56:34;;;;;;;5.18;2.90;;;;;;;21.33;42.69;99382.94;7421572;39;20299;31
2023/05/29 08:07:13;;;;;;;7.00;3.60;;;;;;;21.83;42.31;99391.72;7465365;39;20246;31
2023/05/29 08:12:49;;;;;;;6.60;3.40;;;;;;;21.98;43.04;99372.94;7400860;39;20455;31
2023/05/29 08:18:22;;;;;;;7.33;3.47;;;;;;;22.10;42.25;99376.53;7427871;39;20433;31
2023/05/29 08:23:43;;;;;;;6.30;3.30;;;;;;;22.20;41.52;99382.28;7403969;39;20309;31
2023/05/29 08:29:18;;;;;;;4.55;3.05;;;;;;;22.35;41.79;99376.31;7359858;39;20453;31
2023/05/29 08:34:53;;;;;;;6.87;3.70;;;;;;;22.59;41.04;99377.16;7340114;39;20340;31
2023/05/29 08:40:14;;;;;;;5.43;3.30;;;;;;;22.73;40.57;99384.91;7376366;39;20267;31
2023/05/29 08:50:54;;;;;;;7.60;3.70;;;;;;;22.93;40.83;99387.28;7458725;38;21305;31
2023/05/29 08:56:28;;;;;;;5.82;3.40;;;;;;;23.17;40.43;99390.81;7463987;39;20232;31
2023/05/29 09:02:04;;;;;;;8.15;3.05;;;;;;;23.35;40.51;99383.22;7426335;39;20253;31
2023/05/29 09:07:40;;;;;;;6.47;3.60;;;;;;;23.48;40.47;99381.28;7338426;39;20229;31
2023/05/29 09:13:15;;;;;;;9.92;3.44;;;;;;;23.58;39.97;99384.25;7309834;39;20489;31
2023/05/29 09:18:35;;;;;;;7.72;4.55;;;;;;;23.64;40.57;99386.84;7311475;39;20256;31
2023/05/29 09:24:09;;;;;;;12.64;5.70;;;;;;;23.82;40.16;99384.97;7298533;39;20348;31
2023/05/29 09:29:42;;;;;;;23.92;18.08;;;;;;;23.90;39.72;99387.31;7313723;39;20432;31
2023/05/29 09:35:17;;;;;;;7.76;3.88;;;;;;;24.09;39.74;99386.00;7419498;39;20239;31
2023/05/29 09:40:55;;;;;;;12.10;5.00;;;;;;;24.24;39.51;99389.88;7377439;39;20355;31
2023/05/29 09:46:28;;;;;;;6.65;5.82;;;;;;;24.45;40.07;99390.19;7368805;39;20416;31
2023/05/29 09:51:48;;;;;;;7.02;4.70;;;;;;;24.67;39.79;99400.19;7369209;39;20248;31
2023/05/29 09:57:26;;;;;;;6.67;4.10;;;;;;;24.85;39.71;99401.00;7386338;39;20254;31
2023/05/29 10:02:45;;;;;;;8.45;3.95;;;;;;;25.07;39.24;99390.84;7423063;39;20243;31
2023/05/29 10:08:20;;;;;;;7.28;3.97;;;;;;;25.08;37.66;99401.63;7430567;39;20352;31
2023/05/29 10:13:56;;;;;;;6.85;3.65;;;;;;;25.10;37.13;99385.66;7421957;39;20325;31
2023/05/29 10:19:32;;;;;;;7.94;3.48;;;;;;;25.23;37.62;99386.38;7423074;39;20243;31
2023/05/29 10:25:07;;;;;;;6.30;3.70;;;;;;;25.47;38.56;99382.22;7403019;39;20303;31
2023/05/29 10:35:48;;;;;;;5.95;3.75;;;;;;;25.65;37.11;99372.78;7410862;39;20279;31
2023/05/29 10:41:45;;;;;;;5.52;3.98;;;;;;;25.92;37.69;99368.94;7474620;39;20301;31
2023/05/29 10:47:20;;;;;;;7.30;3.70;;;;;;;26.07;36.12;99378.44;7419906;39;20258;31
2023/05/29 10:53:02;;;;;;;6.40;3.70;;;;;;;26.24;36.15;99360.66;7399983;39;20240;31
2023/05/29 10:58:37;;;;;;;4.57;3.30;;;;;;;26.26;35.43;99364.00;7400489;39;20271;31
2023/05/29 11:09:18;;;;;;;7.22;3.50;;;;;;;26.55;35.50;99358.13;7420962;39;20278;31
2023/05/29 11:19:58;;;;;;;5.10;3.10;;;;;;;26.48;35.15;99350.06;7496429;39;20355;31
2023/05/29 11:25:34;;;;;;;6.68;3.60;;;;;;;26.69;34.89;99351.00;7442142;39;20508;31
2023/05/29 11:31:09;;;;;;;5.04;3.54;;;;;;;26.71;35.61;99357.97;7463562;39;20272;31
2023/05/29 11:41:50;;;;;;;6.05;3.30;;;;;;;26.85;35.04;99348.09;7448221;39;20290;31
2023/05/29 11:47:10;;;;;;;4.78;3.30;;;;;;;26.97;34.30;99358.13;7425327;39;20221;31
2023/05/29 11:52:30;;;;;;;5.25;3.53;;;;;;;27.12;33.46;99358.19;7423160;39;20295;31
2023/05/29 11:58:06;;;;;;;5.55;3.20;;;;;;;26.99;34.33;99350.38;7427328;39;20234;31
2023/05/29 12:03:41;;;;;;;5.12;3.50;;;;;;;27.12;33.86;99349.88;7438885;39;20403;31
2023/05/29 12:09:17;;;;;;;6.40;3.35;;;;;;;27.38;33.75;99342.50;7488288;38;20278;31
2023/05/29 12:14:54;;;;;;;7.30;3.52;;;;;;;27.49;33.05;99344.22;7485944;38;20246;31
2023/05/29 12:20:30;;;;;;;4.80;2.95;;;;;;;27.39;32.72;99333.91;7484756;38;20248;31
2023/05/29 12:26:06;;;;;;;4.55;3.50;;;;;;;27.71;33.04;99347.59;7486056;38;20256;31
2023/05/29 12:31:43;;;;;;;4.40;3.20;;;;;;;27.70;32.82;99324.59;7488100;38;20258;31
2023/05/29 12:37:21;;;;;;;8.35;3.33;;;;;;;27.75;32.48;99324.59;7422652;39;20261;31
2023/05/29 12:42:57;;;;;;;5.20;3.30;;;;;;;27.93;31.86;99323.25;7424004;39;20250;31
2023/05/29 12:48:34;;;;;;;4.32;3.22;;;;;;;27.94;31.31;99319.38;7425724;39;20438;31
2023/05/29 12:54:11;;;;;;;4.60;3.12;;;;;;;28.11;31.47;99319.12;7468029;39;20249;31
2023/05/29 12:59:45;;;;;;;6.43;3.53;;;;;;;28.32;31.32;99312.44;7444763;39;20245;31
2023/05/29 13:05:22;;;;;;;5.72;3.60;;;;;;;28.40;31.30;99303.53;7444030;39;20258;31
2023/05/29 13:10:57;;;;;;;4.10;3.03;;;;;;;28.32;31.09;99306.87;7444102;39;20254;31
2023/05/29 13:16:34;;;;;;;6.05;3.50;;;;;;;28.44;31.31;99301.88;7445755;39;20238;31
2023/05/29 13:22:10;;;;;;;5.05;3.20;;;;;;;28.49;31.84;99306.56;7418661;39;20266;31
2023/05/29 13:32:49;;;;;;;4.90;3.50;;;;;;;28.28;31.30;99311.34;7461988;39;20294;31
2023/05/29 13:43:31;;;;;;;4.07;3.03;;;;;;;28.26;30.39;99299.66;7451017;39;20472;31
2023/05/29 13:49:07;;;;;;;4.62;3.30;;;;;;;28.33;30.02;99297.47;7471202;39;20230;31
2023/05/29 13:54:41;;;;;;;4.95;3.45;;;;;;;28.51;31.23;99296.88;7474730;39;21348;31
2023/05/29 14:00:17;;;;;;;5.80;3.30;;;;;;;28.52;29.83;99300.47;7423027;39;20246;31
2023/05/29 14:05:38;;;;;;;5.10;3.00;;;;;;;28.42;30.26;99306.03;7425090;39;20410;31
2023/05/29 14:10:58;;;;;;;5.03;2.95;;;;;;;28.46;29.82;99290.50;7400946;39;20330;31
2023/05/29 14:16:33;;;;;;;4.03;3.15;;;;;;;28.35;30.12;99278.59;7401208;39;21182;31
2023/05/29 14:22:05;;;;;;;4.30;2.80;;;;;;;28.44;29.89;99274.12;7191897;39;21349;31
2023/05/29 14:27:26;;;;;;;5.07;2.90;;;;;;;28.50;29.44;99284.09;7432958;39;20302;31
2023/05/29 14:33:01;;;;;;;4.70;2.97;;;;;;;28.42;28.85;99276.37;7424108;39;20458;31
2023/05/29 14:38:36;;;;;;;4.18;2.88;;;;;;;28.51;29.04;99285.78;7423127;39;20260;31
2023/05/29 14:44:12;;;;;;;3.70;2.94;;;;;;;28.59;29.95;99270.50;7400452;39;20328;31
2023/05/29 14:49:48;;;;;;;4.53;3.40;;;;;;;28.52;29.55;99272.75;7433725;39;20242;31
2023/05/29 14:55:23;;;;;;;3.35;2.95;;;;;;;28.61;28.41;99273.81;7423118;39;20257;31
2023/05/29 15:00:59;;;;;;;3.55;2.90;;;;;;;28.41;28.22;99262.78;7447262;39;20425;31
2023/05/29 15:06:36;;;;;;;3.53;2.78;;;;;;;28.42;28.81;99262.50;7440579;39;20519;31
2023/05/29 15:12:11;;;;;;;4.85;2.90;;;;;;;28.57;28.06;99254.13;7441814;39;20258;31
2023/05/29 15:17:50;;;;;;;4.28;2.70;;;;;;;28.53;28.24;99268.84;7409869;39;20278;31
2023/05/29 15:23:22;;;;;;;5.78;3.15;;;;;;;28.59;28.27;99263.00;7379988;39;20239;31
2023/05/29 15:28:43;;;;;;;4.95;3.00;;;;;;;28.42;29.28;99265.28;7358726;39;20275;31
2023/05/29 15:34:17;;;;;;;5.65;2.80;;;;;;;28.46;29.51;99266.38;7357491;39;20331;31
2023/05/29 15:39:54;;;;;;;3.65;2.80;;;;;;;28.44;29.38;99243.62;7313515;39;20428;31
2023/05/29 15:45:29;;;;;;;5.15;2.90;;;;;;;28.30;28.38;99250.88;7396507;39;20310;31
2023/05/29 15:51:04;;;;;;;5.20;2.95;;;;;;;28.30;29.22;99244.50;7431748;39;20273;31
2023/05/29 15:56:40;;;;;;;3.20;2.90;;;;;;;28.27;30.25;99229.25;7448123;39;20238;31
2023/05/29 16:02:15;;;;;;;5.15;2.80;;;;;;;28.16;30.38;99230.41;7420176;39;20821;31
2023/05/29 16:12:55;;;;;;;3.20;2.70;;;;;;;28.16;29.87;99241.50;7421027;39;20263;31
2023/05/29 16:23:35;;;;;;;4.40;3.03;;;;;;;28.14;29.25;99235.38;7497597;38;20249;31
2023/05/29 16:29:12;;;;;;;4.60;3.22;;;;;;;28.06;30.14;99230.38;7448451;39;20231;31
2023/05/29 16:34:45;;;;;;;3.70;2.62;;;;;;;28.05;29.77;99226.78;7475461;39;21055;31
2023/05/29 16:40:06;;;;;;;4.74;2.94;;;;;;;27.91;29.87;99220.12;7444018;39;20787;31
2023/05/29 16:45:43;;;;;;;4.50;3.25;;;;;;;27.66;29.78;99222.94;7421206;39;20254;31
2023/05/29 16:51:04;;;;;;;3.97;3.00;;;;;;;27.66;31.06;99237.63;7399676;39;20437;31
2023/05/29 16:56:39;;;;;;;5.95;3.40;;;;;;;27.43;31.35;99235.34;7441173;39;20805;31
2023/05/29 17:07:21;;;;;;;6.43;3.70;;;;;;;26.93;31.61;99233.31;7466321;39;20275;31
2023/05/29 17:12:43;;;;;;;6.00;3.25;;;;;;;26.73;32.57;99239.56;7493187;39;20270;31
2023/05/29 17:18:17;;;;;;;6.37;3.33;;;;;;;26.57;32.57;99248.06;7423890;39;20243;31
2023/05/29 17:23:54;;;;;;;6.78;3.33;;;;;;;26.33;33.25;99242.12;7423171;39;20253;31
2023/05/29 17:29:15;;;;;;;4.05;2.95;;;;;;;26.18;33.21;99256.69;7427045;39;20301;31
2023/05/29 17:34:34;;;;;;;4.35;3.30;;;;;;;26.18;33.91;99248.41;7408156;39;20429;31
2023/05/29 17:40:10;;;;;;;5.97;3.40;;;;;;;25.94;34.60;99260.91;7380367;39;20243;31
2023/05/29 17:45:46;;;;;;;6.17;3.70;;;;;;;25.90;33.96;99271.66;7359872;39;20239;31
2023/05/29 17:51:05;;;;;;;5.40;3.50;;;;;;;25.80;34.38;99260.53;7316919;39;20244;31
2023/05/29 17:56:41;;;;;;;5.40;3.65;;;;;;;25.50;35.35;99274.03;7340359;39;20420;31
2023/05/29 18:02:02;;;;;;;7.03;3.20;;;;;;;25.43;35.28;99276.19;7324620;39;20239;31
2023/05/29 18:07:22;;;;;;;7.43;3.65;;;;;;;25.25;36.53;99266.34;7402702;39;20280;31
2023/05/29 18:12:59;;;;;;;4.60;3.20;;;;;;;25.09;37.12;99281.94;7403056;39;20329;31
2023/05/29 18:18:20;;;;;;;5.55;3.47;;;;;;;25.07;37.22;99280.50;7441065;39;20408;31
2023/05/29 18:23:43;;;;;;;6.05;3.40;;;;;;;24.94;38.02;99284.50;7493986;39;21265;31
2023/05/29 18:29:14;;;;;;;4.07;3.08;;;;;;;24.76;38.74;99282.03;7478708;39;20300;31
2023/05/29 18:34:49;;;;;;;6.40;3.65;;;;;;;24.63;38.76;99280.47;7494105;39;21395;31
2023/05/29 18:40:10;;;;;;;8.35;4.07;;;;;;;24.61;39.09;99287.34;7463990;39;20280;31
2023/05/29 18:45:46;;;;;;;7.34;3.90;;;;;;;24.48;39.19;99291.31;7418979;39;20262;31
2023/05/29 18:51:06;;;;;;;8.02;3.55;;;;;;;24.34;40.43;99294.69;7357724;39;20275;31
2023/05/29 18:56:27;;;;;;;7.95;3.70;;;;;;;24.22;40.03;99295.59;7367980;39;20388;31
2023/05/29 19:02:02;;;;;;;4.97;3.12;;;;;;;24.09;40.38;99289.59;7358890;39;20369;31
2023/05/29 19:07:38;;;;;;;5.65;3.30;;;;;;;24.06;40.07;99299.19;7398700;39;20258;31
2023/05/29 19:18:18;;;;;;;7.87;3.60;;;;;;;23.70;42.35;99313.44;7425772;39;20250;31
2023/05/29 19:23:54;;;;;;;6.18;3.22;;;;;;;23.68;42.54;99315.63;7320704;39;20267;31
2023/05/29 19:29:12;;;;;;;6.12;3.62;;;;;;;23.59;42.64;99317.13;7341294;39;20260;31
2023/05/29 19:34:49;;;;;;;6.35;3.55;;;;;;;23.45;42.40;99326.75;7345856;39;21362;31
2023/05/29 19:40:24;;;;;;;5.46;3.42;;;;;;;23.26;43.02;99335.16;7379528;39;20398;31
2023/05/29 19:45:45;;;;;;;4.47;3.15;;;;;;;23.32;42.73;99336.13;7403919;39;20250;31
2023/05/29 19:51:20;;;;;;;5.70;3.45;;;;;;;23.19;43.14;99342.75;7419369;39;20336;31
2023/05/29 20:01:59;;;;;;;5.10;3.40;;;;;;;22.84;44.58;99362.09;7442876;39;20290;31
2023/05/29 20:12:40;;;;;;;7.12;3.20;;;;;;;22.68;45.34;99378.47;7440820;39;20270;31
2023/05/29 20:23:06;;;;;;;4.05;2.92;;;;;;;22.40;46.28;99395.66;7426569;39;20273;31
2023/05/29 20:33:46;;;;;;;10.00;3.55;;;;;;;22.21;46.28;99394.91;7402722;39;20326;31
2023/05/29 20:39:07;;;;;;;4.78;3.20;;;;;;;22.19;46.04;99404.47;7398623;39;20301;31
2023/05/29 20:44:42;;;;;;;9.35;3.78;;;;;;;22.09;46.88;99406.97;7388250;39;20275;31
2023/05/29 20:50:35;;;;;;;5.40;3.20;;;;;;;21.92;47.06;99412.25;7399194;39;20263;31
2023/05/29 21:01:01;;;;;;;6.92;3.16;;;;;;;21.77;48.22;99415.44;7464117;39;20329;31
2023/05/29 21:06:36;;;;;;;5.55;3.20;;;;;;;21.64;48.14;99425.75;7404678;39;20277;31
2023/05/29 21:11:56;;;;;;;7.58;3.60;;;;;;;21.54;48.34;99418.91;7399751;39;20262;31
2023/05/29 21:17:31;;;;;;;6.68;3.40;;;;;;;21.45;48.36;99417.59;7428329;39;20238;31
2023/05/29 21:23:07;;;;;;;6.80;3.40;;;;;;;21.40;48.36;99419.34;7383959;39;20274;31
2023/05/29 21:28:41;;;;;;;9.13;3.63;;;;;;;21.25;48.81;99416.16;7184226;39;20235;31
2023/05/29 21:34:16;;;;;;;5.95;3.03;;;;;;;21.24;48.44;99420.78;7381160;39;20268;31
2023/05/29 21:39:53;;;;;;;8.13;3.50;;;;;;;21.11;49.60;99418.19;7378721;39;20258;31
2023/05/29 21:45:27;;;;;;;7.45;3.35;;;;;;;21.10;48.60;99413.78;7358710;39;20239;31
2023/05/29 21:50:48;;;;;;;6.52;3.32;;;;;;;21.04;49.43;99420.19;7403106;39;20239;31
2023/05/29 21:56:26;;;;;;;7.25;3.72;;;;;;;20.86;49.84;99437.47;7389360;39;20239;31
2023/05/29 22:01:59;;;;;;;6.00;3.40;;;;;;;20.72;49.61;99427.69;7440955;39;21097;31
2023/05/29 22:07:35;;;;;;;7.40;3.60;;;;;;;20.69;50.07;99423.50;7461358;39;20412;31
2023/05/29 22:13:11;;;;;;;6.34;3.58;;;;;;;20.60;49.75;99438.56;7423720;39;20333;31
2023/05/29 22:18:46;;;;;;;6.05;3.33;;;;;;;20.57;50.16;99441.75;7424037;39;20302;31
2023/05/29 22:24:22;;;;;;;5.65;3.47;;;;;;;20.44;49.85;99441.88;7424406;39;20348;31
2023/05/29 22:29:57;;;;;;;5.80;3.36;;;;;;;20.39;50.29;99449.94;7431479;39;20258;31
2023/05/29 22:35:32;;;;;;;7.35;3.42;;;;;;;20.35;49.76;99459.66;7442232;39;20250;31
2023/05/29 22:41:07;;;;;;;8.50;3.60;;;;;;;20.28;50.15;99461.56;7423083;39;20238;31
2023/05/29 22:46:43;;;;;;;9.80;3.92;;;;;;;20.24;50.50;99474.84;7424595;39;20239;31
2023/05/29 22:52:19;;;;;;;6.70;3.75;;;;;;;20.13;51.15;99466.53;7406895;39;20359;31
2023/05/29 22:57:53;;;;;;;6.35;3.65;;;;;;;20.04;50.96;99470.59;7471401;38;20238;31
2023/05/29 23:03:29;;;;;;;6.68;3.65;;;;;;;19.95;51.33;99471.91;7444762;39;20416;31
2023/05/29 23:09:04;;;;;;;7.80;3.87;;;;;;;19.96;51.81;99479.06;7443515;39;20242;31
2023/05/29 23:14:24;;;;;;;4.87;2.85;;;;;;;19.89;51.44;99472.78;7458577;39;20345;31
2023/05/29 23:20:01;;;;;;;7.20;3.15;;;;;;;19.82;51.96;99474.72;7442974;39;20246;31
2023/05/29 23:25:36;;;;;;;7.45;3.40;;;;;;;19.82;51.30;99472.84;7441364;39;20270;31
2023/05/29 23:36:15;;;;;;;7.97;3.47;;;;;;;19.82;51.53;99482.94;7443319;39;21299;31
2023/05/29 23:41:49;;;;;;;6.00;3.20;;;;;;;19.84;51.37;99487.12;7443559;39;20243;31
2023/05/29 23:47:09;;;;;;;7.12;3.34;;;;;;;19.72;52.25;99488.88;7440564;39;20246;31
2023/05/29 23:52:46;;;;;;;7.90;3.85;;;;;;;19.61;52.66;99495.88;7425093;39;20242;31
2023/05/29 23:58:21;;;;;;;5.68;3.00;;;;;;;19.58;51.30;99498.19;7449393;39;20258;31
